Goldboro, Canada
Current Conditions -  °F | °C
As of 10:00 AM on Wednesday 28 Jan 2015 (Local Time) from CYPD Reporting Station
Moderate Fog Moderate Fog  
Wind Chill: 32°   Ceiling: NA
Heat Index: 32°   Visibility: 0.12mi
Dew Point: 32°   Wind: 2mph
Humidity: 100%   Direction: 50°NE
Pressure: 29.59"   Gusts: NA
Location:  45.18°N, 61.65°W
Report Text: CYPD 281400Z AUTO 05002KT 1/8SM FG 00/00 A2959 RMK PCPN 0.8MM PAST HR CLD MISG SLP027
Loading
Personal Weather Stations






























Interactive Weather Map New forecast layout! Learn more

10-Day Weather Forecast

Advertisements
Track Severe Weather on mobile